Tiempo atmosférico en la estación meteorológica de Reus Aeropuerto, Tarragona (71 m.)



Fecha
DESCASC
Temp. máxima en grados centígrados (hora)
DESCASC
Temp. mínima en grados centígrados (hora)
DESCASC
Temp. media en grados centígrados
DESCASC
Racha de viento máxima en m/sg (hora)
DESCASC
Velocidad máxima media en intervalos de 10 minutos(hora)
DESCASC
Precipitaciones diarias en mm
DESCASC
Precipitaciones de 00:00 a 06:00 en mm
DESCASC
Precipitaciones de 06:00 a 12:00 en mm
DESCASC
Precipitaciones de 12:00 a 18:00 en mm
DESCASC
Precipitaciones de 18:00 a 24:00 en mm
DESCASC
13-10-2019 26.1 (12:00) 19.3 (03:20) 22.7 10.28 (15:00) 7.78 (15:50) 0 0 0 0 0
12-10-2019 26.6 (14:40) 19.7 (05:50) 23.2 7.22 (13:20) 4.44 (13:20) 0 0 0 0 0
10-10-2019 -- (--) -- (--) -- 5 (02:30) 3.61 (02:30) 0 0 0 0 0
09-10-2019 26.6 (14:50) 18.6 (00:00) 22.6 9.17 (22:00) 6.39 (22:00) 0.6 0 0 0 0.6
08-10-2019 25.7 (15:00) 16.2 (00:00) 21 9.17 (16:00) 6.67 (13:50) 0 0 0 0 0
07-10-2019 28.5 (17:30) 15.8 (00:00) 22.2 15 (01:10) 9.72 (03:00) 0 0 0 0 0
06-10-2019 27.9 (16:20) 16.5 (00:00) 22.2 11.39 (16:20) 8.06 (16:10) 0 0 0 0 0
05-10-2019 25.7 (15:30) 15.1 (08:10) 20.4 9.72 (16:10) 6.67 (15:50) 0 0 0 0 0
04-10-2019 -- (--) -- (--) -- 8.33 (16:40) 4.72 (16:20) 0 0 0 0 0
03-10-2019 27.7 (16:30) 14.2 (00:00) 21 13.33 (01:20) 9.17 (02:10) 0 0 0 0 0
02-10-2019 28.3 (16:00) 17.4 (00:00) 22.8 18.06 (20:10) 12.5 (21:50) 0 0 0 0 0
01-10-2019 27.5 (13:10) 19.1 (00:00) 23.3 7.22 (13:20) 4.44 (13:30) 0 0 0 0 0
30-09-2019 27.9 (14:30) 18.1 (00:00) 23 8.33 (14:30) 5 (15:10) 0 0 0 0 0
29-09-2019 27.1 (14:20) 18.7 (00:00) 22.9 7.78 (13:50) 5.28 (17:00) 0 0 0 0 0
28-09-2019 25.5 (15:10) 19.6 (00:00) 22.6 8.89 (10:50) 5.83 (12:00) 0 0 0 0 0
27-09-2019 27.5 (14:30) 19.1 (00:00) 23.3 -- (--) -- (--) 0 0 0 0 0
26-09-2019 27.4 (14:10) 16.2 (00:00) 21.8 -- (--) -- (--) 0 0 0 0 0
25-09-2019 25.9 (13:40) 18.8 (00:00) 22.3 9.17 (13:20) 6.39 (13:50) 0 0 0 0 0
24-09-2019 31.2 (14:10) 15.1 (00:00) 23.2 12.5 (12:30) 8.89 (13:10) -- 0 -- -- 0
23-09-2019 25.3 (15:00) 18.6 (00:00) 21.9 8.89 (14:40) 5.83 (16:00) 0 0 0 0 0
22-09-2019 27.7 (15:00) 19.5 (00:00) 23.6 8.89 (19:10) 5.28 (19:10) 2.6 0 0 0 2.6
21-09-2019 26.9 (15:10) 18.3 (00:00) 22.6 8.89 (15:20) 6.39 (15:30) 6.3 0 6.3 0 0
20-09-2019 26.8 (15:00) 17.3 (00:00) 22 8.89 (14:30) 5.56 (14:00) 0 0 0 0 0
19-09-2019 28.3 (12:20) 19.6 (00:00) 23.9 8.33 (13:30) 5.83 (13:30) 0 0 0 0 0
18-09-2019 31.7 (13:10) 18 (00:00) 24.9 8.33 (15:20) 5.83 (15:00) 0 0 0 0 0
17-09-2019 29.9 (14:10) 16 (00:00) 22.9 6.67 (15:10) 4.72 (15:10) 0 0 0 0 0
16-09-2019 29 (15:20) 17.6 (00:00) 23.3 7.22 (14:00) 5 (16:20) 0 0 0 0 0
15-09-2019 29.5 (13:10) 18.1 (00:00) 23.8 11.67 (15:50) 8.61 (16:00) 0 0 0 0 0

Gráficas

Temp. máximas Temp. mínimas Temp. medias Precipitaciones Rachas de viento máximas Velocidades máximas media en intervalos de 10 minutos

Datos horarios

Fecha y hora oficial Temperatura (ºC) Velocidad del viento (km/h) Dirección del viento Racha (km/h) Dirección de racha Precipitación (mm) Presión (hPa) Tendencia (hPa) Humedad (%)
2019-10-14 23:00:00 20.5 11 Sudoeste 24 Sur 0 1002.8 0.8 87
2019-10-14 22:00:00 19.9 11 Sur 18 Sur 0 1002.5 0.3 91
2019-10-14 21:00:00 19.6 8 Nordeste 17 Este 0 1002.3 0.3 90
2019-10-14 20:00:00 20 12 Este 21 Este 0 1002 -0.7 91
2019-10-14 19:00:00 20.7 11 Este 26 Este 0 1002.2 -2 90
2019-10-14 18:00:00 20.8 15 Este 24 Este 0 1002 -3.1 88
2019-10-14 17:00:00 21.5 9 Nordeste 18 Este 0.8 1002.7 -2.4 85
2019-10-14 16:00:00 22 12 Sudeste 24 Sudeste 0 1004.2 -1.1 77
2019-10-14 15:00:00 23.5 17 Sudeste 26 Sudeste 0 1005.1 -0.6 68
2019-10-14 14:00:00 24.9 11 Sudeste 28 Sudeste 0 1005.1 -1 64
2019-10-14 13:00:00 24.8 19 Este 33 Este 0 1005.3 -0.9 65
2019-10-14 12:00:00 24.6 17 Este 28 Este 0 1005.7 0 66
2019-10-14 11:00:00 22.9 17 Este 26 Este 0 1006.1 0.4 73
2019-10-14 10:00:00 21.2 13 Este 21 Nordeste 0 1006.2 0.3 80
2019-10-14 09:00:00 19.8 13 Nordeste 18 Nordeste 0 1005.7 -0.5 83
2019-10-14 08:00:00 19.1 9 Nordeste 18 Nordeste 0 1005.7 -0.7 86
2019-10-14 07:00:00 19.3 12 Nordeste 18 Nordeste 0 1005.9 -1.1 86
2019-10-14 06:00:00 19.1 13 Nordeste 21 Norte 0 1006.2 -1.3 86
2019-10-14 05:00:00 19.1 10 Nordeste 15 Norte 0 1006.4 -1.6 86
2019-10-14 04:00:00 19.3 6 Norte 15 Norte 0 1007 -1.2 85
2019-10-14 03:00:00 19 11 Norte -- -- -- 1007.5 -1 88
2019-10-14 02:00:00 19.4 10 Norte 15 Norte 0 1008 -0.7 88
2019-10-14 01:00:00 19.9 10 Norte 15 Nordeste 0 1008.2 -0.5 88
2019-10-14 00:00:00 20.3 10 Nordeste 15 Nordeste 0 1008.5 -0.1 90
2019-10-13 23:00:00 20.2 10 Nordeste 13 Nordeste 0 1008.7 0.4 91
2019-10-13 22:00:00 19.8 9 Nordeste 13 Este 0 1008.7 0.7 92
2019-10-13 21:00:00 20.2 9 Nordeste 17 Este 0 1008.6 0.6 88
2019-10-13 20:00:00 21.2 10 Este 21 Este 0 1008.3 0.5 84
2019-10-13 19:00:00 21.9 13 Este 28 Este 0 1008 0.3 83
2019-10-13 18:00:00 22.9 19 Este 33 Este 0 1008 0.2 77
2019-10-13 17:00:00 23.6 23 Este 37 Sudeste 0 1007.8 -0.7 76
2019-10-13 16:00:00 25.3 27 Este 37 Sudeste 0 1007.7 -1.4 68
2019-10-13 15:00:00 25.6 26 Sudeste 37 Sudeste 0 1007.8 -1.4 64
2019-10-13 14:00:00 25.5 22 Sudeste 30 Sudeste 0 1008.5 -0.8 63
2019-10-13 13:00:00 25.7 20 Sudeste 30 Este 0 1009.1 0.1 60
2019-10-13 12:00:00 25.8 16 Este 30 Sudeste 0 1009.2 0.5 60
2019-10-13 11:00:00 24.1 10 Este 18 Nordeste 0 1009.3 0.8 68
2019-10-13 10:00:00 21.7 9 Nordeste 15 Nordeste 0 1009 0.7 80
2019-10-13 09:00:00 20 9 Este 22 Este 0 1008.7 0.5 86
2019-10-13 08:00:00 19.9 7 Nordeste 17 Este 0 1008.5 -0.1 87
2019-10-13 07:00:00 19.9 11 Este 15 Nordeste 0 1008.3 -0.5 88
2019-10-13 06:00:00 19.4 10 Este 18 Nordeste 0 1008.2 -1 87
2019-10-13 05:00:00 20.2 9 Nordeste 15 Nordeste 0 1008.6 -0.9 84
2019-10-13 04:00:00 19.7 9 Nordeste 15 Nordeste 0 1008.8 -1 86
2019-10-13 03:00:00 20 11 Este 17 Nordeste 0 1009.2 -0.6 85
2019-10-13 02:00:00 20.2 10 Nordeste 15 Nordeste 0 1009.5 -0.2 85
2019-10-13 01:00:00 20.3 9 Norte 17 Este 0 1009.8 0.2 87
2019-10-13 00:00:00 20 10 Nordeste 15 Nordeste 0 1009.8 0.3 91
2019-10-12 23:00:00 20.4 10 Nordeste 17 Nordeste 0 1009.7 0.2 87
2019-10-12 22:00:00 20 10 Nordeste 13 Nordeste 0 1009.6 0.4 88
2019-10-12 21:00:00 20.1 6 Nordeste 11 Nordeste 0 1009.5 0.2 87
2019-10-12 20:00:00 20.9 6 Este 17 Este 0 1009.5 0 82
2019-10-12 19:00:00 21.9 11 Este 21 Este 0 1009.2 -0.5 77
2019-10-12 18:00:00 23.6 14 Sudeste 22 Sudeste 0 1009.3 -0.8 68
2019-10-12 17:00:00 24.5 15 Sudeste 24 Sur 0 1009.5 -1.3 66
2019-10-12 16:00:00 25.2 14 Sudeste 26 Sudeste 0 1009.7 -1.5 62
2019-10-12 15:00:00 25.6 12 Sur 26 Sudeste 0 1010.1 -1.5 62
2019-10-12 14:00:00 25.3 14 Sudeste 26 Sudeste 0 1010.8 -0.8 65
2019-10-12 13:00:00 25 14 Sur 24 Sur 0 1011.2 0.1 60
2019-10-12 12:00:00 25.2 13 Sur 24 Sudoeste 0 1011.6 1.1 61
2019-10-12 11:00:00 23.4 15 Sur 22 Sur 0 1011.6 1.5 71
2019-10-12 10:00:00 21.4 9 Sur 17 Sur 0 1011.1 0.9 88
2019-10-12 09:00:00 20.7 7 Sur 13 Sur 0 1010.5 0.4 92
2019-10-12 08:00:00 20.6 0 Calma 9 Sur 0 1010.1 -0.2 90
2019-10-12 07:00:00 20.4 4 Sur 8 Sur 0 1010.2 -0.4 91
2019-10-12 06:00:00 19.7 0 Calma 5 Sudoeste 0 1010.1 -0.9 91
2019-10-12 05:00:00 20 4 Sur 11 Sur 0 1010.3 -1.1 91
2019-10-12 04:00:00 20 9 Sur 11 Sur 0 1010.6 -0.9 90
2019-10-12 03:00:00 20.4 9 Sur 13 Sur 0 1011 -0.6 90
2019-10-12 02:00:00 20.3 8 Sur 15 Sur 0 1011.4 -0.2 90
2019-10-12 01:00:00 20.4 8 Sur 13 Sur 0 1011.5 0.2 88
2019-10-12 00:00:00 20.4 8 Sur 13 Sur 0 1011.6 0.6 87
2019-10-11 23:00:00 21 10 Sur 18 Sur 0 1011.6 0.8 85
2019-10-11 22:00:00 21.5 14 Sur 21 Sur 0 1011.3 0.6 82
2019-10-11 21:00:00 21.4 12 Sur 22 Sur 0 1011 0.2 82
2019-10-11 20:00:00 21.5 11 Sur 18 Sur 0 1010.8 -0.2 80
2019-10-11 19:00:00 21.9 13 Sur 22 Sur 0 1010.7 -0.6 78
2019-10-11 18:00:00 22.5 13 Sur 26 Sur 0 1010.8 -0.9 76
2019-10-11 17:00:00 23.5 15 Sur 26 Sudoeste 0 1011 -1.5 69
2019-10-11 16:00:00 24.7 17 Sur 28 Sur 0 1011.3 -1.8 64
2019-10-11 15:00:00 24 14 Sudoeste 22 Sur 0 1011.7 -1.7 67
2019-10-11 14:00:00 22.6 9 Sur 17 Sur 0 1012.5 -1 74
2019-10-11 13:00:00 22.8 9 Sur 15 Sur 0 1013.1 0 71
2019-10-11 12:00:00 22.2 5 Sur 9 Sudeste 0 1013.4 0.6 71
2019-10-11 11:00:00 21 0 Calma 9 Nordeste 0 1013.5 1 74
2019-10-11 10:00:00 20 6 Nordeste 9 Nordeste 0 1013.1 0.9 77
2019-10-11 09:00:00 19.1 3 Noroeste 8 Noroeste 0 1012.8 0.7 81
2019-10-11 08:00:00 18.6 4 Oeste 8 Oeste 0 1012.5 0.4 84
2019-10-11 07:00:00 18.5 2 Sudoeste 8 Nordeste 0 1012.2 -0.3 84
2019-10-11 06:00:00 18.5 4 Norte -- -- 0 1012.1 -0.7 83
2019-10-11 05:00:00 18.2 3 Norte 8 Norte 0 1012.1 -0.9 83
2019-10-11 04:00:00 18.4 6 Norte 13 Nordeste 0 1012.5 -0.8 81
2019-10-11 03:00:00 18.7 9 Nordeste 17 Norte 0 1012.8 -0.8 78
2019-10-11 02:00:00 18.6 13 Norte 18 Norte 0 1013 -0.6 79
2019-10-11 01:00:00 18.6 12 Norte 17 Norte 0 1013.3 -0.1 79
2019-10-11 00:00:00 18.4 11 Nordeste 13 Nordeste 0 1013.6 0.4 80
2019-10-10 23:00:00 18.6 5 Nordeste 8 Nordeste 0 1013.6 0.7 79
2019-10-10 22:00:00 18.8 4 Norte 5 Norte 0 1013.4 0.7 77
2019-10-10 21:00:00 18.7 2 Nordeste 8 Este 0 1013.2 -- 77
2019-10-10 20:00:00 18.7 5 Sudeste 8 Sudeste 0 1012.9 -- 77
2019-10-10 19:00:00 19.1 8 Sur 13 Sur 0 1012.7 -0.4 74
2019-10-10 18:00:00 -- 6 Sudeste 11 Sudeste 0 -- -- --
2019-10-10 17:00:00 -- 9 Sudeste 15 Sudeste 0 -- -- --
2019-10-10 16:00:00 20.4 7 Sudeste 17 Este 0 1013.1 -1.3 78
2019-10-10 15:00:00 20.2 9 Este 17 Sudeste 0 1013.4 -0.9 77
2019-10-10 14:00:00 20.4 12 Sudeste 18 Sudeste 0 1013.9 -0.5 76
2019-10-10 13:00:00 19.9 9 Este 15 Este 0 1014.4 0.3 72
2019-10-10 12:00:00 19.1 4 Nordeste 13 Norte 0 1014.3 1.1 73
2019-10-10 11:00:00 18.5 8 Norte 15 Nordeste 0 1014.4 1.6 67
2019-10-10 10:00:00 17.8 5 Norte 13 Noroeste 0 1014.1 1.6 80
2019-10-10 09:00:00 17.3 9 Noroeste 13 Noroeste 0 1013.2 0.9 73
2019-10-10 08:00:00 16.9 6 Norte 9 Norte 0 1012.8 0.6 86
2019-10-10 07:00:00 17.2 6 Norte 11 Noroeste 0 1012.5 0.1 93
2019-10-10 06:00:00 17.3 0 Calma 5 Este 0 1012.3 -0.4 95
2019-10-10 05:00:00 17.4 4 Noroeste 9 Norte 0 1012.2 -0.6 97
2019-10-10 04:00:00 17.1 5 Este 13 Este 0 1012.4 -0.1 97
2019-10-10 03:00:00 17.5 7 Este 18 Sudeste 0 1012.7 0.6 98
2019-10-10 02:00:00 18.5 11 Sur 15 Sur 0 1012.8 1 93
2019-10-10 01:00:00 18.9 5 Nordeste 13 Nordeste 0 1012.5 1.8 91
2019-10-10 00:00:00 18.8 7 Nordeste 22 Nordeste 0.5 1012.1 2.2 91
2019-10-09 23:00:00 19.2 15 Norte 33 Este 0.1 1011.8 2.6 91
2019-10-09 22:00:00 19.7 23 Este 33 Este 0 1010.7 2.4 90
2019-10-09 21:00:00 21.1 5 Sudeste 9 Sur 0 1009.9 2.1 90
2019-10-09 20:00:00 21.5 8 Sur 15 Sudoeste 0 1009.2 1.5 88
2019-10-09 19:00:00 22.9 10 Sur 18 Sur 0 1008.3 0.7 82
2019-10-09 18:00:00 24.2 14 Sur 26 Sudoeste 0 1007.8 0.3 76
2019-10-09 17:00:00 25.1 18 Sur 26 Sur 0 1007.7 -0.3 69
2019-10-09 16:00:00 26.1 18 Sur 28 Sur 0 1007.6 -1 64
2019-10-09 15:00:00 26.5 17 Sur 26 Sudoeste 0 1007.5 -1.3 60
2019-10-09 14:00:00 25.2 14 Sudoeste 22 Sur 0 1008 -0.9 66
2019-10-09 13:00:00 22.9 15 Sudoeste 24 Sudoeste 0 1008.6 0 80
2019-10-09 12:00:00 23.5 15 Sudoeste 26 Sudoeste 0 1008.8 0.6 77
2019-10-09 11:00:00 23 13 Sudoeste 22 Sudoeste 0 1008.9 1.1 79
2019-10-09 10:00:00 23.5 16 Sudoeste 24 Sudoeste 0 1008.6 0.9 76
2019-10-09 09:00:00 21.7 10 Sur 15 Sur 0 1008.2 0.5 85
2019-10-09 08:00:00 20.8 2 Norte 9 Norte 0 1007.8 0.2 92
2019-10-09 07:00:00 20.1 4 Sudeste 8 Sudeste 0 1007.7 -0.4 93
2019-10-09 06:00:00 20.2 8 Norte 11 Norte 0 1007.7 -0.6 93
2019-10-09 05:00:00 19.8 6 Nordeste 11 Norte 0 1007.6 -0.9 92
2019-10-09 04:00:00 19.8 9 Norte 11 Norte 0 1008.1 -0.6 93
2019-10-09 03:00:00 19.9 7 Norte -- -- 0 1008.3 -0.5 93
2019-10-09 02:00:00 19.6 5 Norte 11 Norte 0 1008.5 -0.1 92
2019-10-09 01:00:00 19.9 5 Norte 8 Norte 0 1008.7 0.3 92
2019-10-09 00:00:00 19.7 5 Norte 9 Norte 0 1008.8 0.4 91
2019-10-08 23:00:00 20 6 Norte 8 Norte 0 1008.6 0.3 90
2019-10-08 22:00:00 21 5 Sudoeste 8 Sudoeste 0 1008.4 0.1 89
2019-10-08 21:00:00 21.2 7 Sudoeste 15 Sudoeste 0 1008.4 0.2 88
2019-10-08 20:00:00 21.9 11 Sur 22 Sur 0 1008.3 -0.1 86
2019-10-08 19:00:00 22.9 16 Sudoeste 30 Sur 0 1008.3 -0.5 79
2019-10-08 18:00:00 24.3 19 Sur 30 Sur 0 1008.2 -1.1 68
2019-10-08 17:00:00 25 21 Sudoeste 30 Sudoeste 0 1008.4 -1.5 65
2019-10-08 16:00:00 25.4 21 Sur 33 Sudoeste 0 1008.8 -1.9 58
2019-10-08 15:00:00 25.2 21 Sur 32 Sur 0 1009.3 -1.8 64
2019-10-08 14:00:00 24.8 20 Sur 32 Sudoeste 0 1009.9 -1.3 67
2019-10-08 13:00:00 24.7 19 Sur 30 Sudoeste 0 1010.7 -0.2 67
2019-10-08 12:00:00 24.4 21 Sur 28 Sur 0 1011.1 0.6 67
2019-10-08 11:00:00 23.9 12 Sur 21 Sur 0 1011.2 0.8 70
2019-10-08 10:00:00 21.6 2 Noroeste 5 Oeste 0 1010.9 1 74
2019-10-08 09:00:00 18.7 5 Norte 11 Norte 0 1010.5 0.7 80
2019-10-08 08:00:00 17 9 Norte 13 Norte 0 1010.4 0.4 85
2019-10-08 07:00:00 17 8 Norte 15 Norte 0 1009.9 -0.1 84
2019-10-08 06:00:00 16.8 12 Norte 15 Norte 0 1009.8 -0.4 84
2019-10-08 05:00:00 16.3 9 Norte 11 Norte 0 1010 -0.2 86
2019-10-08 04:00:00 16.6 5 Norte 13 Norte 0 1010 0.1 84
2019-10-08 03:00:00 17.4 12 Norte 17 Norte 0 1010.2 0.4 81
2019-10-08 02:00:00 17.9 11 Norte 18 Norte 0 1010.2 0.7 77
2019-10-08 01:00:00 18.2 14 Norte 18 Norte 0 1009.9 0.9 74
2019-10-08 00:00:00 17.6 8 Norte 15 Norte 0 1009.8 1.3 75
2019-10-07 23:00:00 17.9 10 Norte 13 Norte 0 1009.5 1.8 75
2019-10-07 22:00:00 18.8 4 Este 9 Sudoeste 0 1009 2.1 74
2019-10-07 21:00:00 19.9 4 Sudoeste 15 Sudoeste 0 1008.5 2.3 75
2019-10-07 20:00:00 21 10 Nordeste 17 Nordeste 0 1007.7 2.2 60
2019-10-07 19:00:00 22.8 13 Sudeste 26 Sudeste 0 1006.9 1.2 55
2019-10-07 18:00:00 25.2 21 Sudeste 32 Sudeste 0 1006.2 0.2 47
2019-10-07 17:00:00 27.6 19 Oeste 30 Oeste 0 1005.5 -1.2 29
2019-10-07 16:00:00 27.4 21 Oeste 35 Oeste 0 1005.7 -1.9 30
2019-10-07 15:00:00 26.1 27 Oeste 39 Oeste 0 1006 -1.8 33
2019-10-07 14:00:00 24.8 26 Oeste 37 Oeste 0 1006.7 -1 36
2019-10-07 13:00:00 23.1 26 Oeste 37 Oeste 0 1007.6 0.2 40
2019-10-07 12:00:00 21.1 20 Oeste 30 Oeste 0 1007.8 0.8 45
2019-10-07 11:00:00 20.9 6 Este 15 Sudeste 0 1007.7 2 45
2019-10-07 10:00:00 19.5 14 Oeste 32 Oeste 0 1007.4 2.5 47
2019-10-07 09:00:00 17.2 12 Oeste 30 Noroeste 0 1007 1.8 54
2019-10-07 08:00:00 16.8 22 Oeste 45 Oeste 0 1005.7 0.1 54
2019-10-07 07:00:00 17.4 30 Oeste 45 Oeste 0 1004.9 -0.6 52
2019-10-07 06:00:00 17.8 21 Oeste 30 Oeste 0 1005.2 -0.4 47
2019-10-07 05:00:00 18.6 17 Oeste 32 Oeste 0 1005.6 -0.5 47
2019-10-07 04:00:00 19.4 18 Oeste 52 Noroeste 0 1005.5 -0.7 47
2019-10-07 03:00:00 19.8 35 Oeste 52 Oeste 0 1005.6 -1.1 47
2019-10-07 02:00:00 20 30 Oeste 54 Oeste 0 1006.1 -0.8 50
2019-10-07 01:00:00 21.1 35 Oeste 48 Oeste 0 1006.2 -0.7 49
2019-10-07 00:00:00 21.9 26 Oeste 35 Oeste 0 1006.7 -0.3 46
2019-10-06 23:00:00 21.4 9 Oeste 26 Oeste 0 1006.9 0.1 51
2019-10-06 22:00:00 20.8 9 Oeste 22 Oeste 0 1006.9 0.4 72
2019-10-06 21:00:00 21.2 6 Noroeste 15 Norte 0 1007 0.8 83
2019-10-06 20:00:00 22.2 8 Sur 18 Sur 0 1006.8 0.1 81
2019-10-06 19:00:00 25.1 14 Sudoeste 33 Oeste 0 1006.5 -0.7 43
2019-10-06 18:00:00 25.3 15 Sudoeste 39 Oeste 0 1006.2 -1.2 39
2019-10-06 17:00:00 27 20 Oeste 41 Oeste 0 1006.7 -1.8 36
2019-10-06 16:00:00 27 28 Oeste 39 Oeste 0 1007.2 -1.8 34
2019-10-06 15:00:00 26.9 23 Oeste 33 Sudoeste 0 1007.4 -1.9 35
2019-10-06 14:00:00 26 21 Oeste 32 Oeste 0 1008.5 -0.9 40
2019-10-06 13:00:00 25.4 12 Oeste 22 Oeste 0 1009 -0.3 46
2019-10-06 12:00:00 23.9 11 Oeste 21 Oeste 0 1009.3 0.7 52
2019-10-06 11:00:00 22.8 10 Oeste 21 Noroeste 0 1009.4 1.5 58
2019-10-06 10:00:00 20.6 17 Oeste 24 Oeste 0 1009.3 1.5 60
2019-10-06 09:00:00 18.6 12 Oeste 22 Oeste 0 1008.6 1.2 68
2019-10-06 08:00:00 17.1 12 Oeste 18 Oeste 0 1007.9 0.4 83
2019-10-06 07:00:00 17.2 9 Oeste 11 Noroeste 0 1007.8 0.1 95
2019-10-06 06:00:00 17.6 7 Norte 11 Noroeste 0 1007.4 -0.5 94
2019-10-06 05:00:00 18.4 5 Nordeste 9 Norte 0 1007.5 -0.3 91
2019-10-06 04:00:00 19.4 9 Norte 13 Norte 0 1007.7 -0.4 90
2019-10-06 03:00:00 19.4 8 Nordeste 11 Norte 0 1007.9 -0.2 90
2019-10-06 02:00:00 19.3 9 Norte 15 Norte 0 1007.8 -0.3 90
2019-10-06 01:00:00 20.3 10 Norte 15 Norte 0 1008.1 0.1 87
2019-10-06 00:00:00 20.3 11 Norte 15 Norte 0 1008.1 0.6 88
2019-10-05 23:00:00 20.9 11 Norte 13 Norte 0 1008.1 1 86
2019-10-05 22:00:00 21.2 8 Nordeste 17 Norte 0 1008 1.2 86
2019-10-05 21:00:00 20.6 10 Este 21 Este 0 1007.5 1 88
2019-10-05 20:00:00 20.5 11 Este 21 Este 0 1007.1 0.7 89
2019-10-05 19:00:00 21.5 11 Este 26 Este 0 1006.8 0.7 85
2019-10-05 18:00:00 22.8 17 Este 30 Sudeste 0 1006.5 0 80
2019-10-05 17:00:00 23.8 22 Este 35 Sudeste 0 1006.4 -0.5 76
2019-10-05 16:00:00 25 22 Este 33 Este 0 1006.1 -1.2 69
2019-10-05 15:00:00 24.9 19 Este 30 Sudeste 0 1006.5 -0.9 66
2019-10-05 14:00:00 25 17 Sudeste 26 Sur 0 1006.9 -0.6 54
2019-10-05 13:00:00 24.6 13 Sudeste 24 Sudeste 0 1007.3 0.2 57
2019-10-05 12:00:00 24.1 8 Sudeste 15 Sur 0 1007.4 0.9 58
2019-10-05 11:00:00 22.5 6 Este 13 Este 0 1007.5 1.6 60
2019-10-05 10:00:00 20 8 Nordeste 18 Noroeste 0 1007.1 1.3 68
2019-10-05 09:00:00 17.6 12 Noroeste 15 Noroeste 0 1006.5 0.8 75
2019-10-05 08:00:00 15.4 2 Noroeste 15 Noroeste 0 1005.9 0.4 88
2019-10-05 07:00:00 16 9 Noroeste 17 Norte 0 1005.8 0.1 93
2019-10-05 06:00:00 16.7 3 Norte 15 Noroeste 0 1005.7 -0.4 87
2019-10-05 05:00:00 17.6 5 Noroeste 13 Norte 0 1005.5 -0.3 94
2019-10-05 04:00:00 18.1 9 Norte 15 Norte 0 1005.7 -0.1 91
2019-10-05 03:00:00 18.4 11 Norte 17 Norte 0 1006.1 0.3 88
2019-10-05 02:00:00 17.9 13 Norte 17 Norte 0 1005.8 0 90
2019-10-05 01:00:00 18.6 9 Norte 21 Norte 0 1005.8 0.2 86
2019-10-05 00:00:00 19.2 12 Norte 18 Norte 0 1005.8 0.2 82
2019-10-04 23:00:00 19.5 13 Norte 18 Norte 0 1005.8 0.5 82
2019-10-04 22:00:00 19.5 12 Norte 13 Norte 0 1005.6 0.5 86
2019-10-04 21:00:00 20.5 2 Nordeste 9 Sudoeste 0 1005.6 0.3 83
2019-10-04 20:00:00 21.3 8 Sudoeste 17 Sur 0 1005.3 -0.2 80
2019-10-04 19:00:00 23 13 Sudoeste 26 Sudoeste 0 1005.1 -1 70
2019-10-04 18:00:00 24 15 Sudoeste 24 Sudoeste 0 1005.3 -1.4 61
2019-10-04 17:00:00 24.9 13 Sur 30 Sudoeste 0 1005.5 -- 52
2019-10-04 16:00:00 25.5 15 Sudoeste 22 Sudoeste 0 1006.1 -- 48
2019-10-04 15:00:00 25.1 10 Sudeste 26 Sudeste 0 1006.7 -1.4 49
2019-10-04 14:00:00 -- 13 Este 26 Sudeste 0 -- -- --
2019-10-04 13:00:00 -- 9 Sudeste 18 Este 0 -- -- --
2019-10-04 12:00:00 23.9 5 Sur 15 Sudeste 0 1008.1 -0.1 51
2019-10-04 11:00:00 21.8 3 Este 9 Este 0 1008.4 0.8 48
2019-10-04 10:00:00 18.6 5 Nordeste 13 Norte 0 1008.4 1.2 62
2019-10-04 09:00:00 14.6 9 Nordeste 18 Nordeste 0 1008.2 1.2 68
2019-10-04 08:00:00 12.1 9 Norte 13 Norte 0 1007.6 0.4 83
2019-10-04 07:00:00 11.7 6 Nordeste 9 Nordeste 0 1007.2 0.2 90
2019-10-04 06:00:00 13.1 7 Noroeste 15 Noroeste 0 1007 -0.4 82
2019-10-04 05:00:00 14.2 13 Noroeste 17 Noroeste 0 1007.2 -0.1 83
2019-10-04 04:00:00 13.8 5 Noroeste 15 Norte 0 1007 -0.3 87
2019-10-04 03:00:00 13.9 8 Norte 11 Norte 0 1007.4 -0.4 87
2019-10-04 02:00:00 15.5 5 Norte 15 Norte 0 1007.3 -0.4 82
2019-10-04 01:00:00 17.1 13 Norte 18 Norte 0 1007.3 -0.1 78
2019-10-04 00:00:00 17.2 11 Norte 17 Norte 0 1007.8 0.9 79
2019-10-03 23:00:00 16.7 12 Norte 15 Norte 0 1007.7 1.3 81
2019-10-03 22:00:00 17.9 9 Norte 13 Norte 0 1007.4 1.6 79
2019-10-03 21:00:00 18.6 6 Noroeste 15 Oeste 0 1006.9 1.5 75
2019-10-03 20:00:00 20.5 4 Sudoeste 32 Sudoeste 0 1006.4 1.1 69
2019-10-03 19:00:00 22.2 24 Sur 37 Sur 0 1005.8 0.5 66
2019-10-03 18:00:00 24.9 28 Sur 39 Sur 0 1005.4 -0.3 52
2019-10-03 17:00:00 27.5 21 Sudoeste 30 Sudoeste 0 1005.3 -1.1 32
2019-10-03 16:00:00 27 17 Oeste 30 Oeste 0 1005.3 -1.7 36
2019-10-03 15:00:00 26.3 22 Oeste 32 Oeste 0 1005.7 -1.7 39
2019-10-03 14:00:00 25.2 23 Oeste 39 Noroeste 0 1006.4 -1.2 42
2019-10-03 13:00:00 24.4 21 Oeste 35 Oeste 0 1007 -0.6 45
2019-10-03 12:00:00 22.3 23 Oeste 41 Noroeste 0 1007.4 -0.1 50
2019-10-03 11:00:00 20.3 28 Oeste 39 Noroeste 0 1007.6 0.2 56
2019-10-03 10:00:00 18.8 21 Oeste 30 Oeste 0 1007.6 0.5 60
2019-10-03 09:00:00 15.4 3 Sur 9 Norte 0 1007.5 0.5 76
2019-10-03 08:00:00 15.3 5 Norte 26 Oeste 0 1007.4 0.5 72
2019-10-03 07:00:00 15.6 11 Norte 22 Noroeste 0 1007.1 0.2 70
2019-10-03 06:00:00 17 17 Noroeste 37 Oeste 0 1007 -0.2 65
2019-10-03 05:00:00 17 23 Oeste 30 Noroeste 0 1006.9 -0.2 66
2019-10-03 04:00:00 17.1 15 Oeste 26 Noroeste 0 1006.9 -0.1 66
2019-10-03 03:00:00 17.8 20 Noroeste 48 Oeste 0 1007.2 0.5 64
2019-10-03 02:00:00 18.6 31 Oeste 48 Oeste 0 1007.1 0.7 62
2019-10-03 01:00:00 19.3 26 Oeste 41 Oeste 0 1007 2.4 61
2019-10-03 00:00:00 20 22 Oeste 52 Oeste 0 1006.7 2.6 57
2019-10-02 23:00:00 20.6 21 Norte 58 Oeste 0 1006.4 2.9 55
2019-10-02 22:00:00 21.8 42 Oeste 65 Oeste 0 1004.6 1.7 51
2019-10-02 21:00:00 23 41 Oeste 65 Oeste 0 1004.1 1.7 48
2019-10-02 20:00:00 24.2 38 Oeste 61 Oeste 0 1003.5 1.1 44
2019-10-02 19:00:00 26.1 30 Oeste 46 Oeste 0 1002.9 0.4 40
2019-10-02 18:00:00 27.4 33 Oeste 54 Oeste 0 1002.4 -0.7 37
2019-10-02 17:00:00 28.1 36 Oeste 52 Oeste 0 1002.4 -0.6 36
2019-10-02 16:00:00 28 36 Oeste 52 Oeste 0 1002.5 -1 36
2019-10-02 15:00:00 27.5 35 Oeste 48 Oeste 0 1003.1 -0.5 38
2019-10-02 14:00:00 26.4 31 Oeste 50 Oeste 0 1003 -0.9 40
2019-10-02 13:00:00 26 24 Noroeste 46 Oeste 0 1003.5 0.2 42
2019-10-02 12:00:00 24.3 31 Oeste 46 Oeste 0 1003.6 0.2 44
2019-10-02 11:00:00 22.5 17 Noroeste 45 Noroeste 0 1003.9 0.9 49
2019-10-02 10:00:00 21.2 22 Noroeste 33 Oeste 0 1003.3 0.4 51
2019-10-02 09:00:00 19.9 13 Noroeste 30 Oeste 0 1003.4 0.6 54
2019-10-02 08:00:00 19 15 Oeste 30 Oeste 0 1003 0.9 58
2019-10-02 07:00:00 18.7 2 Sudoeste 37 Oeste 0 1002.9 1 68
2019-10-02 06:00:00 19.9 22 Oeste 32 Oeste 0 1002.8 0.8 64
2019-10-02 05:00:00 20.4 12 Norte 21 Este 0 1002.1 0.4 87
2019-10-02 04:00:00 21.3 13 Oeste 24 Oeste 0 1001.9 0.5 55
2019-10-02 03:00:00 21.3 12 Sur 24 Sudoeste 0 1002 0.8 88
2019-10-02 02:00:00 21.2 6 Sudeste 28 Nordeste 0 1001.7 1 69
2019-10-02 01:00:00 20.6 3 Oeste 17 Noroeste 0 1001.4 0.7 91
2019-10-02 00:00:00 19.5 6 Norte 15 Noroeste 0 1001.2 1 98
2019-10-01 23:00:00 20.5 9 Norte 13 Norte 0 1000.7 0.9 97
2019-10-01 22:00:00 21.7 4 Norte 9 Norte 0 1000.7 0.9 94
2019-10-01 21:00:00 22.3 3 Sudoeste 11 Sudoeste 0 1000.2 0.5 95
2019-10-01 20:00:00 23 9 Sudoeste 18 Sudoeste 0 999.8 0 92
2019-10-01 19:00:00 24.3 14 Sudoeste 21 Sur 0 999.8 -0.5 85
2019-10-01 18:00:00 24.8 13 Sudoeste 22 Sur 0 999.7 -1.2 81
2019-10-01 17:00:00 26.4 12 Sur 24 Sur 0 999.8 -2 74
2019-10-01 16:00:00 26.7 15 Sudoeste 24 Sur 0 1000.3 -2.2 70
2019-10-01 15:00:00 25.9 16 Sur 24 Sudoeste 0 1000.9 -1.9 73
2019-10-01 14:00:00 26.7 14 Sur 26 Sur 0 1001.8 -1.6 71
2019-10-01 13:00:00 26.6 13 Sudoeste 21 Sudoeste 0 1002.5 -0.7 68
2019-10-01 12:00:00 25.8 6 Sudeste 17 Sudoeste 0 1002.8 0 71
2019-10-01 11:00:00 23.9 9 Sudoeste 17 Sudoeste 0 1003.4 0.6 78
2019-10-01 10:00:00 21.9 6 Nordeste 11 Este 0 1003.2 0.2 81
2019-10-01 09:00:00 20.8 6 Norte 15 Norte 0 1002.8 -0.5 85
2019-10-01 08:00:00 19.8 10 Nordeste 13 Nordeste 0 1002.8 -0.9 88
2019-10-01 07:00:00 19.5 -- -- -- -- 0 1003 -1.2 89
2019-10-01 06:00:00 20.3 4 Nordeste 11 Norte 0 1003.3 -1.8 89
2019-10-01 05:00:00 20.5 8 Norte 15 Norte 0 1003.7 -1.6 87
2019-10-01 04:00:00 20.4 9 Nordeste 11 Nordeste 0 1004.2 -1.6 87
2019-10-01 03:00:00 20.3 5 Nordeste -- -- 0 1005.1 -1.1 91
2019-10-01 02:00:00 21 6 Norte 8 Norte 0 1005.3 -1.2 88
2019-10-01 01:00:00 21.1 5 Norte 9 Noroeste 0 1005.8 -0.6 89
2019-10-01 00:00:00 21.3 5 Oeste 9 Oeste 0 1006.2 -0.2 90
2019-09-30 23:00:00 21.5 5 Sudoeste -- -- 0 1006.5 0.1 90
2019-09-30 22:00:00 21.8 0 Calma 5 Sur 0 1006.4 -0.3 86
2019-09-30 21:00:00 22.6 5 Sur 9 Sur 0 1006.4 -0.4 83
2019-09-30 20:00:00 23.1 8 Sur 15 Sur 0 1006.4 -0.8 81
2019-09-30 19:00:00 23.6 10 Sur 18 Sur 0 1006.7 -1.1 79
2019-09-30 18:00:00 24.2 13 Sur 24 Sudeste 0 1006.8 -1.3 78
2019-09-30 17:00:00 25.1 13 Sudeste 26 Sudeste 0 1007.2 -1.6 75
2019-09-30 16:00:00 26.6 16 Sudeste 28 Sudeste 0 1007.8 -1.6 71
2019-09-30 15:00:00 27.3 15 Sudeste 30 Sudeste 0 1008.1 -1.5 69
2019-09-30 14:00:00 27.6 15 Sur 22 Sur 0 1008.8 -0.7 66
2019-09-30 13:00:00 26.4 13 Sudeste 22 Sudeste 0 1009.4 0.3 67
2019-09-30 12:00:00 25.5 7 Este 13 Este 0 1009.6 1 74
2019-09-30 11:00:00 24.8 6 Nordeste 15 Nordeste 0 1009.5 1.4 75
2019-09-30 10:00:00 23 9 Norte 13 Norte 0 1009.1 1.5 82
2019-09-30 09:00:00 20 11 Norte 15 Norte 0 1008.6 1.3 91
2019-09-30 08:00:00 18.5 9 Norte 13 Norte 0 1008.1 1 94
2019-09-30 07:00:00 19.5 10 Norte 18 Norte 0 1007.6 0.4 93
2019-09-30 06:00:00 19.8 13 Norte 21 Norte 0 1007.3 0 87
2019-09-30 05:00:00 19.7 15 Norte 22 Norte 0 1007.1 -0.2 88
2019-09-30 04:00:00 18.9 17 Norte 22 Norte 0 1007.2 0 91
2019-09-30 03:00:00 19.5 15 Norte 21 Norte 0 1007.3 0.1 92
2019-09-30 02:00:00 20.5 10 Norte 13 Norte 0 1007.3 0.2 94
2019-09-30 01:00:00 21.6 7 Norte 11 Norte 0 1007.2 0.2 96
2019-09-30 00:00:00 22.7 6 Norte 9 Norte 0 1007.2 0.8 93
2019-09-29 23:00:00 23 4 Sur 8 Sudoeste 0 1007.1 0.7 94
2019-09-29 22:00:00 22.6 0 Calma 5 Sur 0 1007 0.7 97
2019-09-29 21:00:00 22.5 5 Sur 15 Sur 0 1006.4 0.2 95
2019-09-29 20:00:00 23.6 10 Sur 18 Sur 0 1006.4 -0.1 92
2019-09-29 19:00:00 24.3 13 Sur 26 Sudoeste 0 1006.3 -0.5 88
2019-09-29 18:00:00 25.7 17 Sudoeste 28 Sur 0 1006.2 -1.2 81
2019-09-29 17:00:00 26.3 19 Sur 26 Sudoeste 0 1006.5 -1.5 78
2019-09-29 16:00:00 26.8 16 Sur 26 Sur 0 1006.8 -1.7 75
2019-09-29 15:00:00 26.7 18 Sur 28 Sudoeste 0 1007.4 -1.5 75
2019-09-29 14:00:00 26.7 15 Sur 28 Sur 0 1008 -1 72
2019-09-29 13:00:00 25.6 15 Sudoeste 24 Sudoeste 0 1008.5 -0.3 75
2019-09-29 12:00:00 25 13 Sudoeste 22 Sudoeste 0 1008.9 0.5 77
2019-09-29 11:00:00 24.3 13 Sudoeste 18 Sudoeste 0 1009 0.6 81
2019-09-29 10:00:00 21.7 5 Nordeste 9 Norte 0 1008.8 0.5 87
2019-09-29 09:00:00 19.9 6 Nordeste 11 Nordeste 0 1008.4 0 90
2019-09-29 08:00:00 19.1 8 Norte 11 Norte 0 1008.4 -0.2 93
2019-09-29 07:00:00 19.6 4 Nordeste 9 Norte 0 1008.3 -0.8 91
2019-09-29 06:00:00 20 9 Norte 11 Norte 0 1008.4 -1.4 91
2019-09-29 05:00:00 19.8 6 Nordeste 9 Nordeste 0 1008.6 -1.2 93
2019-09-29 04:00:00 19.1 10 Norte 11 Norte 0 1009.1 -0.9 95
2019-09-29 03:00:00 19.9 9 Norte 11 Norte 0 1009.8 -0.5 92
2019-09-29 02:00:00 20.3 7 Norte 13 Norte 0 1009.8 -0.8 91
2019-09-29 01:00:00 19.9 11 Norte 15 Norte 0 1010 -0.7 92
2019-09-29 00:00:00 19.8 7 Norte 9 Norte 0 1010.3 -0.3 94
2019-09-28 23:00:00 20.2 9 Norte 11 Norte 0 1010.6 0 92
2019-09-28 22:00:00 20.3 9 Norte 17 Norte 0 1010.7 0 91
2019-09-28 21:00:00 20.9 4 Norte 8 Sur 0 1010.6 -0.2 90
2019-09-28 20:00:00 22 5 Sudeste 11 Sur 0 1010.6 -0.5 86
2019-09-28 19:00:00 23.6 9 Sudeste 17 Sudeste 0 1010.7 -1 78
2019-09-28 18:00:00 24.5 10 Sudeste 18 Sudeste 0 1010.8 -1.2 72
2019-09-28 17:00:00 24.4 13 Sudeste 18 Sudeste 0 1011.1 -1.6 69
2019-09-28 16:00:00 24.5 14 Sudeste 24 Sudeste 0 1011.7 -1.3 70
2019-09-28 15:00:00 25 16 Sudeste 26 Este 0 1012 -0.9 67
2019-09-28 14:00:00 25 17 Este 28 Este 0 1012.7 -0.1 68
2019-09-28 13:00:00 24.3 16 Este 30 Este 0 1013 0.9 69
2019-09-28 12:00:00 23.6 21 Este 32 Este 0 1012.9 1.5 70
2019-09-28 11:00:00 23.6 15 Este 32 Nordeste 0 1012.8 1.9 72
2019-09-28 10:00:00 24 14 Este 24 Este 0 1012.1 1.6 74
2019-09-28 09:00:00 22.4 10 Nordeste 18 Nordeste 0 1011.4 1.2 90
2019-09-28 08:00:00 21.3 7 Nordeste 9 Este 0 1010.9 0.7 97
2019-09-28 07:00:00 21.4 6 Norte 9 Norte 0 1010.5 0.4 96
2019-09-28 06:00:00 21.4 7 Norte 11 Norte 0 1010.2 -0.1 96
2019-09-28 05:00:00 20.7 10 Norte 13 Norte 0 1010.2 0 98
2019-09-28 04:00:00 20.3 6 Nordeste 13 Norte 0 1010.1 0.3 98
2019-09-28 03:00:00 20.4 9 Norte 13 Norte 0 1010.3 0.7 100
2019-09-28 02:00:00 20.6 10 Norte 13 Norte 0 1010.2 0.9 98
2019-09-28 01:00:00 20.4 9 Norte 11 Norte 0 1009.8 0.8 97
2019-09-28 00:00:00 21 -- -- -- -- 0 1009.6 1 97
2019-09-27 23:00:00 21.5 5 Noroeste 8 Noroeste 0 1009.3 1.1 97
2019-09-27 22:00:00 21.8 -- -- -- -- 0 1009 1.1 98
2019-09-27 21:00:00 22.6 0 Calma 5 Sudoeste 0 1008.6 1 93
2019-09-27 20:00:00 23.5 5 Sudoeste 13 Sur 0 1008.2 0.6 90
2019-09-27 19:00:00 24.4 9 Sudeste 15 Sur 0 1007.9 0.2 88
2019-09-27 18:00:00 25.3 11 Sur 21 Sur 0 1007.6 -0.6 80
2019-09-27 17:00:00 26.7 13 Sudeste 21 Sudeste 0 1007.6 -1.2 75
2019-09-27 16:00:00 27.3 13 Sudeste 22 Sudeste 0 1007.7 -1.3 72
2019-09-27 15:00:00 26.5 13 Sudeste 24 Este 0 1008.2 -1 76
2019-09-27 14:00:00 27.2 15 Sur 26 Sudeste 0 1008.8 -0.8 74
2019-09-27 13:00:00 26 13 Sur 21 Sudeste 0 1009 -0.5 78
2019-09-27 12:00:00 25.1 9 Sudeste 15 Sudeste 0 1009.2 0.1 80
2019-09-27 11:00:00 24.4 6 Este 9 Este 0 1009.6 0.7 81
2019-09-27 10:00:00 22.8 6 Nordeste 11 Nordeste 0 1009.5 0.9 84
2019-09-27 09:00:00 20.7 9 Norte 13 Norte 0 1009.1 0.4 89
2019-09-27 08:00:00 19.8 4 Nordeste 17 Norte 0 1008.9 0.3 94
2019-09-27 07:00:00 19.6 6 Nordeste 13 Norte 0 1008.6 -0.4 94
2019-09-27 06:00:00 19.8 7 Nordeste 11 Nordeste 0 1008.7 -0.6 95
2019-09-27 05:00:00 19.3 7 Nordeste 13 Norte 0 1008.6 -0.9 96
2019-09-27 04:00:00 19.9 9 Norte 13 Norte 0 1009 -0.7 94
2019-09-27 03:00:00 19.7 10 Norte 13 Norte 0 1009.3 -0.5 95
2019-09-27 02:00:00 19.7 10 Norte -- -- 0 1009.5 -0.2 96
2019-09-27 01:00:00 19.9 6 Norte 8 Norte 0 1009.7 0.1 96
2019-09-27 00:00:00 20.4 4 Noroeste -- -- 0 1009.8 0.6 94
2019-09-26 23:00:00 21.2 0 Calma -- -- 0 1009.7 0.9 94
2019-09-26 22:00:00 21.6 4 Sudoeste 8 Sudoeste 0 1009.6 0.8 93
2019-09-26 21:00:00 21.8 7 Sudoeste 13 Sudoeste 0 1009.2 0.6 91
2019-09-26 20:00:00 22.7 10 Sudoeste 21 Sur 0 1008.8 0 86
2019-09-26 19:00:00 24.6 13 Sur 24 Sur 0 1008.8 -0.2 74
2019-09-26 18:00:00 25.5 15 Sur 24 Sur 0 1008.6 -0.6 66
2019-09-26 17:00:00 26.3 18 Sudoeste 30 Sudoeste 0 1008.8 -0.9 61
2019-09-26 16:00:00 26.5 18 Sur 26 Sur 0 1009 -1.2 57
2019-09-26 15:00:00 26.8 17 Sur 28 Sur 0 1009.2 -1.4 52
2019-09-26 14:00:00 26.9 15 Sur 28 Sur 0 1009.7 -1 47
2019-09-26 13:00:00 27.1 17 Sur 32 Sur 0 1010.2 0 48
2019-09-26 12:00:00 25.2 4 Nordeste 11 Sudeste 0 1010.6 0.9 51
2019-09-26 11:00:00 23.4 4 Este 11 Sudeste 0 1010.7 1.6 60
2019-09-26 10:00:00 20.8 5 Este 11 Sudeste 0 1010.2 1.4 76
2019-09-26 09:00:00 18.2 6 Nordeste 13 Nordeste 0 1009.7 1.2 91
2019-09-26 08:00:00 16.6 9 Noroeste 13 Noroeste 0 1009.1 0.7 95
2019-09-26 07:00:00 16.4 4 Noroeste 9 Norte 0 1008.8 0.7 94
2019-09-26 06:00:00 16.9 9 Norte 13 Norte 0 1008.5 0 95
2019-09-26 05:00:00 17.8 11 Norte 13 Norte 0 1008.4 0.1 94
2019-09-26 04:00:00 17.9 7 Norte -- -- 0 1008.1 -0.6 97
2019-09-26 03:00:00 18.1 5 Noroeste 9 Noroeste 0 1008.5 -0.2 95
2019-09-26 02:00:00 18.5 5 Norte -- -- 0 1008.3 -0.3 95
2019-09-26 01:00:00 19.3 9 Norte 13 Norte 0 1008.7 0.5 92
2019-09-26 00:00:00 20.2 11 Norte 15 Norte 0 1008.7 0.9 88
2019-09-25 23:00:00 21.2 9 Norte 11 Norte 0 1008.6 1.2 87
2019-09-25 22:00:00 20.9 5 Este 9 Este 0 1008.2 1.2 88
2019-09-25 21:00:00 21.4 5 Este 13 Sudeste 0 1007.8 1.2 85
2019-09-25 20:00:00 22 9 Sudeste 15 Sudeste 0 1007.4 1.1 79
2019-09-25 19:00:00 22.6 10 Este 21 Sudeste 0 1007 0.6 73
2019-09-25 18:00:00 23 12 Sudeste 28 Este 0 1006.6 0.1 72
2019-09-25 17:00:00 23.2 18 Sudeste 30 Sudeste 0 1006.3 -0.4 72
2019-09-25 16:00:00 24.4 17 Sudeste 30 Sudeste 0 1006.4 -0.8 68
2019-09-25 15:00:00 25.3 19 Sudeste 32 Sudeste 0 1006.5 -1 65
2019-09-25 14:00:00 25.3 23 Sudeste 33 Sudeste 0 1006.7 -0.7 65
2019-09-25 13:00:00 25.3 22 Sudeste 32 Sudeste 0 1007.2 0.3 65
2019-09-25 12:00:00 25.2 17 Sur 26 Sur 0 1007.5 1.3 62
2019-09-25 11:00:00 24.3 15 Sur 21 Sur 0 1007.4 1.9 62
2019-09-25 10:00:00 22.3 6 Sur 11 Sur 0 1006.9 2.1 81
2019-09-25 09:00:00 21.3 0 Calma 8 Este 0 1006.2 1.7 85
2019-09-25 08:00:00 19.5 0 Calma 5 Noroeste 0 1005.5 1.4 94
2019-09-25 07:00:00 18.9 0 Calma 5 Norte 0 1004.8 0.5 96
2019-09-25 06:00:00 19.8 3 Noroeste 11 Este 0 1004.5 -0.1 96
2019-09-25 05:00:00 20.5 5 Norte 11 Norte 0 1004.1 -0.4 93
2019-09-25 04:00:00 20.8 8 Norte 15 Norte 0 1004.3 -0.1 91
2019-09-25 03:00:00 20 12 Norte 15 Norte 0 1004.6 -0.3 88
2019-09-25 02:00:00 20.6 11 Norte 13 Norte 0 1004.5 -0.5 79
2019-09-25 01:00:00 20.2 9 Nordeste 11 Norte 0 1004.4 -0.6 83
2019-09-25 00:00:00 19.9 5 Norte 11 Nordeste 0 1004.9 0.3 85
2019-09-24 23:00:00 20.5 10 Nordeste 11 Nordeste 0 1005 0.8 90
2019-09-24 22:00:00 21.6 6 Norte 17 Norte 0 1005 0.8 89
2019-09-24 21:00:00 22 6 Nordeste 9 Sudoeste 0 1004.6 0.6 88
2019-09-24 20:00:00 23.4 8 Sudoeste 17 Sudoeste 0 1004.2 0.2 83
2019-09-24 19:00:00 25.2 12 Sudoeste 32 Sudoeste 0 1004.2 0.1 77
2019-09-24 18:00:00 26.3 22 Sudoeste 37 Sudoeste 0 1004 -0.6 71
2019-09-24 17:00:00 27.1 25 Sur 37 Sudoeste 0 1004 -1.4 65
2019-09-24 16:00:00 29.8 25 Sudoeste 35 Sudoeste 0 1004.1 -2 43
2019-09-24 15:00:00 30.9 25 Sudoeste 39 Sudoeste 0 1004.6 -2.1 40
2019-09-24 14:00:00 30.7 28 Oeste 42 Oeste 0 1005.4 -1.9 33
2019-09-24 13:00:00 29.5 30 Oeste 45 Oeste -- 1006.1 -1 36
2019-09-24 12:00:00 27.8 26 Sudoeste 37 Oeste -- 1006.7 -0.4 42
2019-09-24 11:00:00 24.4 7 Sur 13 Sur -- 1007.3 0.1 67
2019-09-24 10:00:00 21.9 3 Este 11 Este 0 1007.1 -0.1 74
2019-09-24 09:00:00 18 0 Calma 15 Norte 0 1007.1 -0.3 82
2019-09-24 08:00:00 15.3 10 Norte 13 Norte 0 1007.2 -0.3 90
2019-09-24 07:00:00 15.6 6 Norte 11 Norte 0 1007.2 -0.9 92
2019-09-24 06:00:00 16 6 Norte 13 Norte 0 1007.4 -1.2 93
2019-09-24 05:00:00 16 3 Nordeste 11 Norte 0 1007.5 -1.5 90
2019-09-24 04:00:00 16.8 10 Norte 13 Norte 0 1008.1 -1.1 88
2019-09-24 03:00:00 17.3 4 Norte 11 Norte 0 1008.6 -0.9 93
2019-09-24 02:00:00 18.3 9 Norte 15 Norte 0 1009 -0.6 90
2019-09-24 01:00:00 18.6 9 Norte 13 Norte 0 1009.2 -0.4 88
2019-09-24 00:00:00 18.9 10 Nordeste 13 Nordeste 0 1009.5 0 92
2019-09-23 23:00:00 20.4 9 Oeste 22 Oeste 0 1009.6 0.3 85
2019-09-23 22:00:00 20.3 15 Oeste 17 Oeste 0 1009.6 0.3 88
2019-09-23 21:00:00 21.1 6 Sudoeste 15 Sudoeste 0 1009.5 0.3 83
2019-09-23 20:00:00 21.9 10 Sudoeste 22 Sur 0 1009.3 0.2 78
2019-09-23 19:00:00 22.8 13 Sudoeste 22 Sur 0 1009.3 -0.2 72
2019-09-23 18:00:00 23.1 16 Sur 26 Sur 0 1009.2 -0.4 69
2019-09-23 17:00:00 23.7 18 Sur 32 Sudoeste 0 1009.1 -1 67
2019-09-23 16:00:00 24.5 21 Sur 30 Sur 0 1009.5 -1.2 64
2019-09-23 15:00:00 25.1 18 Sur 32 Sudoeste 0 1009.6 -1.3 61
2019-09-23 14:00:00 24.5 19 Sur 30 Sur 0 1010.1 -1 63
2019-09-23 13:00:00 23.6 17 Sur 28 Sur 0 1010.7 0 66
2019-09-23 12:00:00 23.9 14 Sur 21 Sudeste 0 1010.9 0.4 70
2019-09-23 11:00:00 23 6 Sudoeste 13 Oeste 0 1011.1 1.3 72
2019-09-23 10:00:00 21.4 11 Oeste 21 Noroeste 0 1010.7 1.6 70
2019-09-23 09:00:00 19.4 6 Oeste 15 Noroeste 0 1010.5 1.8 97
2019-09-23 08:00:00 18.7 5 Noroeste 8 Noroeste 0 1009.8 1.4 98
2019-09-23 07:00:00 19 3 Noroeste 9 Norte 0 1009.1 1.3 98
2019-09-23 06:00:00 19.2 7 Noroeste 11 Nordeste 0 1008.7 1.5 97
2019-09-23 05:00:00 20 3 Norte 18 Este 0 1008.4 1.8 95
2019-09-23 04:00:00 20.4 10 Este 21 Este 0 1007.8 1.7 95
2019-09-23 03:00:00 20.8 8 Este 15 Este 0 1007.2 1.5 92
2019-09-23 02:00:00 21.2 3 Nordeste 9 Nordeste 0 1006.6 1.3 96
2019-09-23 01:00:00 21.3 3 Nordeste 8 Sudoeste 0 1006.1 1.1 97
2019-09-23 00:00:00 21.4 2 Sudeste 9 Norte 0 1005.7 1.3 96
2019-09-22 23:00:00 21.4 3 Este 8 Este 0 1005.3 1.5 97
2019-09-22 22:00:00 21.4 3 Sur 9 Nordeste 0 1005 1.8 97
2019-09-22 21:00:00 21.6 6 Noroeste 9 Norte 0 1004.4 2 92
2019-09-22 20:00:00 21.1 4 Este 32 Sur 2.2 1003.8 1.6 93
2019-09-22 19:00:00 24.3 13 Oeste 21 Oeste 0.4 1003.2 1 82
2019-09-22 18:00:00 25 14 Sur 22 Sur 0 1002.4 0.2 79
2019-09-22 17:00:00 26.5 15 Sur 22 Sudoeste 0 1002.2 -0.7 72
2019-09-22 16:00:00 27.2 14 Sudeste 26 Sudeste 0 1002.2 -0.9 74
2019-09-22 15:00:00 27.5 11 Sur 24 Sudoeste 0 1002.2 -1.4 69
2019-09-22 14:00:00 26 14 Sur 26 Sur 0 1002.9 -0.8 75
2019-09-22 13:00:00 26.2 15 Sudeste 28 Sudeste 0 1003.1 -0.6 75
2019-09-22 12:00:00 25.3 9 Sur 17 Sur 0 1003.6 0.5 77
2019-09-22 11:00:00 24.4 5 Sur 11 Oeste 0 1003.7 0.8 80
2019-09-22 10:00:00 22.7 3 Sudoeste 9 Sudeste 0 1003.7 1.3 83
2019-09-22 09:00:00 21.3 3 Noroeste 11 Oeste 0 1003.1 0.5 88
2019-09-22 08:00:00 19.8 5 Oeste -- -- 0 1002.9 -0.1 95
2019-09-22 07:00:00 20.1 3 Oeste 8 Noroeste 0 1002.4 -1.1 93
2019-09-22 06:00:00 20.4 0 Calma 9 Nordeste 0 1002.6 -1.1 92
2019-09-22 05:00:00 20.3 6 Norte 9 Noroeste 0 1003 -0.9 92
2019-09-22 04:00:00 20.2 0 Calma 13 Norte 0 1003.5 -0.7 92
2019-09-22 03:00:00 20.8 5 Nordeste 11 Norte 0 1003.7 -0.9 89
2019-09-22 02:00:00 20.6 9 Nordeste 13 Nordeste 0 1003.9 -0.6 88
2019-09-22 01:00:00 20.8 7 Este 17 Este 0 1004.2 -0.3 89
2019-09-22 00:00:00 21.1 12 Este 21 Este 0 1004.6 0.6 87
2019-09-21 23:00:00 21.2 13 Este 24 Este 0 1004.5 1.1 88
2019-09-21 22:00:00 21.7 9 Este 17 Sudeste 0 1004.5 1.3 91
2019-09-21 21:00:00 22.1 2 Este 13 Noroeste 0 1004 1.1 83
2019-09-21 20:00:00 22.3 6 Norte 13 Nordeste 0 1003.4 0.6 80
2019-09-21 19:00:00 22.5 11 Nordeste 28 Nordeste 0 1003.2 0.5 79
2019-09-21 18:00:00 24.2 16 Este 32 Este 0 1002.9 -0.5 83
2019-09-21 17:00:00 25.4 14 Sudeste 32 Sudeste 0 1002.8 -0.6 76
2019-09-21 16:00:00 26.3 19 Este 32 Sudeste 0 1002.7 -1.9 75
2019-09-21 15:00:00 26.3 18 Sudeste 26 Sudeste 0 1003.4 -0.9 77
2019-09-21 14:00:00 25.8 8 Sudeste 22 Este 0 1003.4 -1.5 77
2019-09-21 13:00:00 25.1 11 Nordeste 17 Nordeste 0 1004.6 -0.6 80
2019-09-21 12:00:00 21.3 13 Norte 21 Norte 0 1004.3 -0.5 93
2019-09-21 11:00:00 20.6 7 Noroeste 21 Norte 0 1004.9 -0.5 92
2019-09-21 10:00:00 19.5 10 Noroeste 26 Norte 0.1 1005.2 -0.1 95
2019-09-21 09:00:00 18.5 8 Norte 30 Oeste 5.8 1004.8 -0.6 97
2019-09-21 08:00:00 20.8 15 Norte 21 Norte 0.4 1005.4 -1.1 88
2019-09-21 07:00:00 21.2 10 Norte 24 Norte 0 1005.3 -1.9 80
2019-09-21 06:00:00 20.7 19 Norte 28 Norte 0 1005.4 -1.8 85
2019-09-21 05:00:00 21.3 16 Norte 24 Norte 0 1006.5 -0.7 80
2019-09-21 04:00:00 21.5 13 Nordeste 21 Nordeste 0 1007.2 -0.4 80
2019-09-21 03:00:00 21.2 10 Nordeste 18 Nordeste 0 1007.2 -1.1 82
2019-09-21 02:00:00 21.3 13 Nordeste 26 Nordeste 0 1007.2 -1.4 84
2019-09-21 01:00:00 20.8 14 Nordeste 21 Nordeste 0 1007.6 -1.4 85
2019-09-21 00:00:00 20.6 12 Nordeste 18 Nordeste 0 1008.3 -0.7 87
2019-09-20 23:00:00 21.7 13 Nordeste 18 Nordeste 0 1008.6 -0.3 84
2019-09-20 22:00:00 21.6 9 Nordeste 17 Este 0 1009 0.3 85
2019-09-20 21:00:00 21.8 10 Este 24 Este 0 1009 0.5 84
2019-09-20 20:00:00 22.4 15 Este 26 Sudeste 0 1008.9 0.4 82
2019-09-20 19:00:00 23.3 17 Este 26 Sudeste 0 1008.7 -0.3 75
2019-09-20 18:00:00 24.6 15 Este 24 Sudeste 0 1008.5 -0.7 69
2019-09-20 17:00:00 25.6 17 Este 28 Sudeste 0 1008.5 -1.1 59
2019-09-20 16:00:00 25.4 19 Sudeste 28 Sudeste 0 1009 -1.1 57
2019-09-20 15:00:00 26.6 18 Este 32 Sudeste 0 1009.2 -1.8 54
2019-09-20 14:00:00 26.5 20 Sudeste 28 Sudeste 0 1009.6 -1.7 58
2019-09-20 13:00:00 25.9 16 Sudeste 26 Sudeste 0 1010.1 -0.8 62
2019-09-20 12:00:00 25.3 14 Este 24 Este 0 1011 0.9 67
2019-09-20 11:00:00 24.1 13 Este 22 Este 0 1011.3 1.7 71
2019-09-20 10:00:00 22.8 10 Nordeste 15 Nordeste 0 1010.9 1.5 63
2019-09-20 09:00:00 19.7 11 Norte 15 Norte 0 1010.1 0.7 76
2019-09-20 08:00:00 17.4 9 Norte 15 Norte 0 1009.6 0.2 86
2019-09-20 07:00:00 18.1 8 Norte 11 Norte 0 1009.4 -0.2 81
2019-09-20 06:00:00 17.9 4 Norte 11 Nordeste 0 1009.4 -0.5 81
2019-09-20 05:00:00 17.7 6 Nordeste 11 Nordeste 0 1009.4 -0.5 85
2019-09-20 04:00:00 18.2 6 Norte 17 Norte 0 1009.6 0 82
2019-09-20 03:00:00 19 13 Norte 17 Norte 0 1009.9 -0.2 82
2019-09-20 02:00:00 18.4 7 Norte 13 Nordeste 0 1009.9 -0.3 85
2019-09-20 01:00:00 19.8 10 Noroeste 13 Noroeste 0 1009.6 -0.4 84
2019-09-20 00:00:00 20.3 9 Norte 11 Norte 0 1010.1 0.9 86
2019-09-19 23:00:00 21 5 Norte 11 Nordeste 0 1010.2 1.8 85
2019-09-19 22:00:00 21.2 8 Nordeste 13 Nordeste 0 1010 2 84
2019-09-19 21:00:00 21.5 9 Este 11 Este 0 1009.2 1.1 83
2019-09-19 20:00:00 22.6 6 Este 11 Sudeste 0 1008.4 0.1 77
2019-09-19 19:00:00 23.7 8 Sudeste 13 Sudeste 0 1008 -0.1 72
2019-09-19 18:00:00 24.2 10 Sur 22 Sur 0 1008.1 -0.2 71
2019-09-19 17:00:00 26 14 Sudeste 24 Sudeste 0 1008.3 -0.1 65
2019-09-19 16:00:00 26.5 16 Sudeste 24 Sudeste 0 1008.1 -0.4 63
2019-09-19 15:00:00 26.5 18 Sudeste 26 Sur 0 1008.3 -0.6 63
2019-09-19 14:00:00 27.1 18 Sudeste 30 Sudeste 0 1008.4 -0.6 55
2019-09-19 13:00:00 27.8 15 Sudeste 24 Sudeste 0 1008.5 -0.3 55
2019-09-19 12:00:00 27.3 4 Norte 13 Sudeste 0 1008.9 0.4 52
2019-09-19 11:00:00 26.3 5 Este 11 Este 0 1009 0.7 56
2019-09-19 10:00:00 24.9 4 Nordeste 11 Norte 0 1008.8 0.7 64
2019-09-19 09:00:00 22.3 8 Norte 15 Norte 0 1008.5 0.8 71
2019-09-19 08:00:00 19.6 12 Norte -- -- 0 1008.3 0.8 80
2019-09-19 07:00:00 20.3 10 Norte 13 Norte 0 1008.1 0.3 78
2019-09-19 06:00:00 20.6 9 Norte 15 Norte 0 1007.7 0.5 77
2019-09-19 05:00:00 20.8 10 Norte 13 Norte 0 1007.5 0.2 78
2019-09-19 04:00:00 21.1 9 Norte 11 Norte 0 1007.8 0.6 80
2019-09-19 03:00:00 20.8 12 Este 21 Nordeste 0 1007.2 -0.1 85
2019-09-19 02:00:00 20.9 3 Sur 11 Nordeste 0 1007.3 -0.2 92
2019-09-19 01:00:00 21.3 2 Este 11 Sudoeste 0 1007.2 -0.1 91
2019-09-19 00:00:00 21.9 6 Sur 17 Noroeste 0 1007.3 0.5 89
2019-09-18 23:00:00 22.6 12 Oeste 15 Oeste 0 1007.5 1.5 93
2019-09-18 22:00:00 22.7 4 Sudoeste 11 Este 0 1007.3 1.1 91
2019-09-18 21:00:00 23.8 4 Sur 13 Este 0 1006.8 0.5 84
2019-09-18 20:00:00 24.4 7 Este 9 Este 0 1006 -0.2 80
2019-09-18 19:00:00 25.7 5 Sudeste 11 Sudeste 0 1006.2 -0.2 72
2019-09-18 18:00:00 26.2 8 Sudeste 15 Sur 0 1006.3 0.2 74
2019-09-18 17:00:00 27 8 Sudeste 24 Sudeste 0 1006.2 -0.2 67
2019-09-18 16:00:00 27.3 19 Sudeste 30 Sur 0 1006.4 0 71
2019-09-18 15:00:00 30.2 21 Sudeste 28 Sudeste 0 1006.1 -0.4 44
2019-09-18 14:00:00 31.3 16 Sudeste 22 Sudeste 0 1006.4 0 41
2019-09-18 13:00:00 31.4 8 Sudeste 18 Sudeste 0 1006.4 0.3 41
2019-09-18 12:00:00 29.8 4 Sudoeste 17 Oeste 0 1006.5 1 42
2019-09-18 11:00:00 27.7 7 Oeste 13 Oeste 0 1006.4 1.5 47
2019-09-18 10:00:00 25.1 6 Nordeste 22 Norte 0 1006.1 1.6 54
2019-09-18 09:00:00 22.3 5 Norte 13 Norte 0 1005.5 0.5 61
2019-09-18 08:00:00 19.5 10 Norte 22 Norte 0 1004.9 -0.3 72
2019-09-18 07:00:00 19.4 12 Norte 18 Norte 0 1004.5 -0.3 76
2019-09-18 06:00:00 -- 8 Noroeste -- -- 0 1005 -0.2 --
2019-09-18 05:00:00 19.3 7 Oeste 15 Oeste 0 1005.2 -0.5 81
2019-09-18 04:00:00 18 3 Sur 18 Nordeste 0 1004.8 -1.7 81
2019-09-18 03:00:00 19.9 12 Nordeste 21 Norte 0 1005.2 -1.9 72
2019-09-18 02:00:00 19.7 12 Norte 18 Norte 0 1005.7 -1.2 83
2019-09-18 01:00:00 20.1 5 Noroeste 11 Norte 0 1006.5 0.2 77
2019-09-18 00:00:00 21 6 Noroeste 22 Norte 0 1007.1 1.5 83
2019-09-17 23:00:00 20.9 7 Sudoeste 11 Sudoeste 0 1006.9 1.8 89
2019-09-17 22:00:00 21.6 6 Oeste 9 Sudoeste 0 1006.3 0.9 87
2019-09-17 21:00:00 22.4 5 Sudoeste 8 Sudeste 0 1005.6 -0.3 81
2019-09-15 18:00:00 27.4 24 Este 35 Este 0 1011 -0.8 59
2019-09-15 17:00:00 26.4 25 Este 41 Este 0 1011.3 -1.2 73
2019-09-15 16:00:00 27.1 31 Este 42 Este 0 1011.3 -1.8 67
2019-09-15 15:00:00 28.1 25 Este 39 Este 0 1011.8 -1.7 63
2019-09-15 14:00:00 28 23 Este 37 Sudeste 0 1012.5 -1.3 52
2019-09-15 13:00:00 29.3 16 Este 24 Este 0 1013.1 -0.2 40
2019-09-15 12:00:00 27.5 15 Este 32 Este 0 1013.5 0.6 44
2019-09-15 11:00:00 26.8 14 Este 35 Nordeste 0 1013.8 0.9 42
2019-09-15 10:00:00 25 13 Nordeste 22 Nordeste 0 1013.3 0.5 45
2019-09-15 09:00:00 20.1 11 Nordeste 15 Nordeste 0 1012.9 0.2 64
2019-09-15 08:00:00 19 8 Norte 18 Norte 0 1012.9 -0.3 65
2019-09-15 07:00:00 19.1 9 Nordeste 22 Norte 0 1012.8 -1.2 64
2019-09-15 06:00:00 18.9 14 Norte 21 Norte 0 1012.7 -1.2 66
2019-09-15 05:00:00 19.1 12 Norte 17 Norte 0 1013.2 -0.9 63
2019-09-15 04:00:00 18.7 4 Noroeste 13 Norte 0 1014 -0.4 71
2019-09-15 03:00:00 19.9 10 Norte 13 Norte 0 1013.9 0.2 63
2019-09-15 02:00:00 20.3 4 Nordeste 11 Norte 0 1014.1 0.1 65
2019-09-15 01:00:00 20.9 7 Norte 17 Nordeste 0 1014.4 0.3 63
2019-09-15 00:00:00 23.3 14 Nordeste 26 Nordeste 0 1013.7 -0.4 50